Time;durP1;ratioP1;P1;durP2;ratioP2;P2;SDS_P1;SDS_P2;PMS_P1;PMS_P2;Temp;Humidity;BMP_temperature;BMP_pressure;BME280_temperature;BME280_humidity;BME280_pressure;Samples;Min_cycle;Max_cycle;Signal;HPM_P1;HPM_P2
2023/03/24 00:01:00;;;;;;;9.30;5.00;;;11.40;99.90;;;;;;5033026;28;20455;-74
2023/03/24 00:03:29;;;;;;;8.17;5.33;;;11.40;99.90;;;;;;5033275;28;20476;-73
2023/03/24 00:06:00;;;;;;;11.37;5.70;;;11.40;99.90;;;;;;5033058;28;20795;-73
2023/03/24 00:08:30;;;;;;;8.63;5.97;;;11.40;99.90;;;;;;5033337;28;20420;-73
2023/03/24 00:11:03;;;;;;;8.80;5.90;;;11.40;99.90;;;;;;5032902;28;20450;-73
2023/03/24 00:13:36;;;;;;;8.87;5.63;;;11.40;99.90;;;;;;5031787;28;20443;-73
2023/03/24 00:16:06;;;;;;;7.83;5.53;;;11.30;99.90;;;;;;5035776;28;20850;-73
2023/03/24 00:18:35;;;;;;;8.33;5.37;;;11.30;99.90;;;;;;5037066;28;20434;-73
2023/03/24 00:21:05;;;;;;;9.00;5.93;;;11.30;99.90;;;;;;5035431;28;20573;-73
2023/03/24 00:23:34;;;;;;;10.53;5.63;;;11.30;99.90;;;;;;5018974;28;20466;-73
2023/03/24 00:26:03;;;;;;;7.20;4.80;;;11.30;99.90;;;;;;5036671;28;20477;-73
2023/03/24 00:28:35;;;;;;;11.57;5.60;;;11.30;99.90;;;;;;5035352;28;20450;-73
2023/03/24 00:31:07;;;;;;;10.83;5.70;;;11.30;99.90;;;;;;5018909;28;20467;-73
2023/03/24 00:33:36;;;;;;;9.90;6.13;;;11.30;99.90;;;;;;5035909;28;20477;-73
2023/03/24 00:36:07;;;;;;;8.97;5.87;;;11.30;99.90;;;;;;5035413;28;20952;-73
2023/03/24 00:38:35;;;;;;;9.90;5.40;;;11.30;99.90;;;;;;5036518;28;20427;-73
2023/03/24 00:41:06;;;;;;;10.37;5.77;;;11.20;99.90;;;;;;5035030;28;20466;-73
2023/03/24 00:43:36;;;;;;;8.90;4.90;;;11.30;99.90;;;;;;5035021;28;20466;-73
2023/03/24 00:46:07;;;;;;;10.50;5.80;;;11.30;99.90;;;;;;5018642;28;20450;-73
2023/03/24 00:48:37;;;;;;;9.60;5.40;;;11.30;99.90;;;;;;5035059;28;20473;-73
2023/03/24 00:51:09;;;;;;;9.63;6.10;;;11.30;99.90;;;;;;5019213;28;20466;-73
2023/03/24 00:53:42;;;;;;;10.20;5.80;;;11.20;99.90;;;;;;5018468;28;20927;-73
2023/03/24 00:56:14;;;;;;;9.10;5.43;;;11.20;99.90;;;;;;5036720;28;20415;-73
2023/03/24 00:58:44;;;;;;;9.00;5.87;;;11.20;99.90;;;;;;5034881;28;20912;-73
2023/03/24 01:01:12;;;;;;;11.17;5.70;;;11.20;99.90;;;;;;5036239;28;20454;-73
2023/03/24 01:03:46;;;;;;;8.70;5.40;;;11.20;99.90;;;;;;5035999;28;20501;-73
2023/03/24 01:06:18;;;;;;;12.30;6.27;;;11.20;99.90;;;;;;5036481;28;20422;-73
2023/03/24 01:08:48;;;;;;;9.47;5.67;;;11.20;99.90;;;;;;5017272;28;20827;-73
2023/03/24 01:11:18;;;;;;;8.00;5.83;;;11.20;99.90;;;;;;4998327;28;20972;-72
2023/03/24 01:13:50;;;;;;;8.17;5.30;;;11.20;99.90;;;;;;5018696;28;20425;-73
2023/03/24 01:16:21;;;;;;;8.73;5.57;;;11.20;99.90;;;;;;5017864;28;20449;-73
2023/03/24 01:18:51;;;;;;;7.70;5.17;;;11.20;99.90;;;;;;5036292;28;20436;-73
2023/03/24 01:21:20;;;;;;;10.20;6.03;;;11.20;99.90;;;;;;5034363;28;20467;-73
2023/03/24 01:23:48;;;;;;;9.13;6.00;;;11.20;99.90;;;;;;5035773;28;21035;-72
2023/03/24 01:26:16;;;;;;;8.70;5.67;;;11.20;99.90;;;;;;5016747;28;20435;-72
2023/03/24 01:28:45;;;;;;;6.50;5.37;;;11.20;99.90;;;;;;5017760;28;20454;-73
2023/03/24 01:31:14;;;;;;;8.00;6.10;;;11.20;99.90;;;;;;5035595;28;20459;-73
2023/03/24 01:33:43;;;;;;;9.23;6.57;;;11.20;99.90;;;;;;5017736;28;20454;-73
2023/03/24 01:36:11;;;;;;;7.53;6.07;;;11.20;99.90;;;;;;5034256;28;20548;-73
2023/03/24 01:38:39;;;;;;;8.37;6.43;;;11.20;99.90;;;;;;5034994;28;20963;-73
2023/03/24 01:41:08;;;;;;;8.20;6.57;;;11.20;99.90;;;;;;5035367;28;20450;-72
2023/03/24 01:43:36;;;;;;;7.90;6.37;;;11.20;99.90;;;;;;5035203;28;20444;-74
2023/03/24 01:46:16;;;;;;;12.30;6.87;;;11.20;99.90;;;;;;5017535;28;20447;-73
2023/03/24 01:48:50;;;;;;;7.60;6.60;;;11.20;99.90;;;;;;5034002;28;20446;-73
2023/03/24 01:51:22;;;;;;;11.53;6.90;;;11.20;99.90;;;;;;5033886;28;20471;-74
2023/03/24 01:53:57;;;;;;;10.70;7.20;;;11.20;99.90;;;;;;5017349;28;20439;-72
2023/03/24 01:56:27;;;;;;;9.57;7.20;;;11.20;99.90;;;;;;5017631;28;20833;-73
2023/03/24 01:58:59;;;;;;;9.83;7.30;;;11.20;99.90;;;;;;5017219;28;20482;-73
2023/03/24 02:01:53;;;;;;;9.17;7.70;;;11.30;99.90;;;;;;5031674;28;20463;-73
2023/03/24 02:04:40;;;;;;;11.77;8.53;;;11.30;99.90;;;;;;5017035;28;20467;-73
2023/03/24 02:07:15;;;;;;;11.50;7.57;;;11.30;99.90;;;;;;5017361;28;20481;-73
2023/03/24 02:09:43;;;;;;;8.20;7.20;;;11.30;99.90;;;;;;5017123;28;20450;-73
2023/03/24 02:12:12;;;;;;;8.23;7.13;;;11.30;99.90;;;;;;5033364;28;21027;-74
2023/03/24 02:14:41;;;;;;;11.80;8.40;;;11.30;99.90;;;;;;5016989;28;20466;-73
2023/03/24 02:17:29;;;;;;;9.10;8.20;;;11.30;99.90;;;;;;5033384;28;20451;-73
2023/03/24 02:20:30;;;;;;;10.87;8.20;;;11.30;99.90;;;;;;5033472;28;20455;-73
2023/03/24 02:23:29;;;;;;;9.27;8.37;;;11.30;99.90;;;;;;5040033;28;20474;-72
2023/03/24 02:26:35;;;;;;;10.93;8.13;;;11.30;99.90;;;;;;5033917;28;20519;-73
2023/03/24 02:29:19;;;;;;;10.03;8.93;;;11.30;99.90;;;;;;5034705;28;20494;-73
2023/03/24 02:32:15;;;;;;;11.87;9.00;;;11.30;99.90;;;;;;5016717;28;20553;-73
2023/03/24 02:35:27;;;;;;;11.43;10.00;;;11.30;99.90;;;;;;5034222;28;20470;-73
2023/03/24 02:38:29;;;;;;;10.97;9.93;;;11.40;99.90;;;;;;5016212;28;20542;-73
2023/03/24 02:41:03;;;;;;;11.50;9.40;;;11.40;99.90;;;;;;4978833;28;20900;-73
2023/03/24 02:43:40;;;;;;;10.13;9.13;;;11.40;99.90;;;;;;5016798;28;20434;-73
2023/03/24 02:46:15;;;;;;;11.07;9.90;;;11.40;99.90;;;;;;5016300;28;20472;-73
2023/03/24 02:48:58;;;;;;;13.10;9.27;;;11.40;99.90;;;;;;5016384;28;21017;-73
2023/03/24 02:51:30;;;;;;;11.80;10.17;;;11.40;99.90;;;;;;5034453;28;20461;-73
2023/03/24 02:54:07;;;;;;;11.07;10.07;;;11.40;99.90;;;;;;5016184;28;20502;-73
2023/03/24 02:56:42;;;;;;;12.13;10.90;;;11.40;99.90;;;;;;5033031;28;20810;-73
2023/03/24 02:59:30;;;;;;;11.63;10.47;;;11.40;99.90;;;;;;5016402;28;20443;-73
2023/03/24 03:02:05;;;;;;;11.97;10.07;;;11.50;99.90;;;;;;5032571;28;20967;-73
2023/03/24 03:04:48;;;;;;;11.90;10.80;;;11.50;99.90;;;;;;5015987;28;21049;-73
2023/03/24 03:07:22;;;;;;;11.70;10.70;;;11.50;99.90;;;;;;5016195;28;20458;-73
2023/03/24 03:09:59;;;;;;;12.03;11.03;;;11.50;99.90;;;;;;5032366;28;20447;-74
2023/03/24 03:12:34;;;;;;;11.63;10.73;;;11.50;99.90;;;;;;5015956;28;20450;-73
2023/03/24 03:15:07;;;;;;;12.40;11.40;;;11.50;99.90;;;;;;5034123;28;20426;-74
2023/03/24 03:17:38;;;;;;;11.70;10.70;;;11.50;99.90;;;;;;5032460;28;20427;-73
2023/03/24 03:20:10;;;;;;;12.23;11.23;;;11.50;99.90;;;;;;5033947;28;20477;-73
2023/03/24 03:22:43;;;;;;;13.03;11.87;;;11.60;99.90;;;;;;5015831;28;20910;-73
2023/03/24 03:25:15;;;;;;;13.33;12.23;;;11.60;99.90;;;;;;5032120;28;20513;-74
2023/03/24 03:27:45;;;;;;;12.67;11.40;;;11.60;99.90;;;;;;5032251;28;20447;-73
2023/03/24 03:30:18;;;;;;;12.90;11.70;;;11.60;99.90;;;;;;5033449;28;20493;-72
2023/03/24 03:32:53;;;;;;;13.00;11.80;;;11.60;99.90;;;;;;5033741;28;20912;-73
2023/03/24 03:35:26;;;;;;;14.60;13.20;;;11.70;99.90;;;;;;5032102;28;20458;-73
2023/03/24 03:38:03;;;;;;;12.27;11.17;;;11.70;99.90;;;;;;5033349;28;20518;-73
2023/03/24 03:40:35;;;;;;;13.03;11.83;;;11.70;99.90;;;;;;5032053;28;20477;-73
2023/03/24 03:43:12;;;;;;;13.70;12.40;;;11.70;99.90;;;;;;5015676;28;20474;-73
2023/03/24 03:45:40;;;;;;;13.10;12.00;;;11.70;99.90;;;;;;5015437;28;20478;-73
2023/03/24 03:48:10;;;;;;;12.77;11.67;;;11.70;99.90;;;;;;5015614;28;20795;-73
2023/03/24 03:50:38;;;;;;;14.00;12.90;;;11.70;99.90;;;;;;5036530;28;20454;-73
2023/03/24 03:53:09;;;;;;;13.57;12.37;;;11.70;99.90;;;;;;5019612;28;20450;-73
2023/03/24 03:55:37;;;;;;;13.43;12.23;;;11.70;99.90;;;;;;5036021;28;20497;-73
2023/03/24 03:58:05;;;;;;;14.77;13.47;;;11.70;99.90;;;;;;5019476;28;20463;-73
2023/03/24 04:00:43;;;;;;;13.30;12.20;;;11.80;99.90;;;;;;5019349;28;20480;-73
2023/03/24 04:04:05;;;;;;;14.40;13.20;;;11.80;99.90;;;;;;5036649;28;20447;-73
2023/03/24 04:07:08;;;;;;;14.13;13.03;;;11.80;99.90;;;;;;5008593;28;20906;-73
2023/03/24 04:09:46;;;;;;;15.00;13.70;;;11.80;99.90;;;;;;5035846;28;20439;-72
2023/03/24 04:12:34;;;;;;;14.73;13.53;;;11.80;99.90;;;;;;5019497;28;20456;-73
2023/03/24 04:15:36;;;;;;;14.50;13.30;;;11.80;99.90;;;;;;5037139;28;20442;-73
2023/03/24 04:18:30;;;;;;;15.13;13.77;;;11.80;99.90;;;;;;5034893;28;20450;-73
2023/03/24 04:21:22;;;;;;;14.33;13.20;;;11.80;99.90;;;;;;5019035;28;20474;-73
2023/03/24 04:23:58;;;;;;;15.23;13.73;;;11.80;99.90;;;;;;5037365;28;20419;-73
2023/03/24 04:26:33;;;;;;;14.10;13.00;;;11.90;99.90;;;;;;5019018;28;20926;-73
2023/03/24 04:29:08;;;;;;;14.60;13.40;;;11.90;99.90;;;;;;5018992;28;20519;-73
2023/03/24 04:31:43;;;;;;;14.30;13.10;;;11.90;99.90;;;;;;5036977;28;20880;-73
2023/03/24 04:34:20;;;;;;;13.40;12.30;;;11.90;99.90;;;;;;5019168;28;20446;-73
2023/03/24 04:36:53;;;;;;;13.63;12.50;;;11.90;99.90;;;;;;5018855;28;20434;-73
2023/03/24 04:39:37;;;;;;;13.43;12.27;;;11.90;99.90;;;;;;5018844;28;20443;-73
2023/03/24 04:42:16;;;;;;;14.67;13.30;;;11.90;99.90;;;;;;5018809;28;20524;-73
2023/03/24 04:44:50;;;;;;;12.20;11.20;;;11.90;99.90;;;;;;5018964;28;20454;-74
2023/03/24 04:47:21;;;;;;;13.70;12.50;;;12.00;99.90;;;;;;5036262;28;20539;-73
2023/03/24 04:50:13;;;;;;;13.70;12.40;;;12.00;99.90;;;;;;5032126;28;20470;-73
2023/03/24 04:52:42;;;;;;;14.10;12.90;;;12.00;99.90;;;;;;5018512;28;20962;-73
2023/03/24 04:55:31;;;;;;;12.97;11.83;;;12.00;99.90;;;;;;5019289;28;20438;-73
2023/03/24 04:57:59;;;;;;;13.97;12.87;;;12.00;99.90;;;;;;5018520;28;20443;-73
2023/03/24 05:00:27;;;;;;;13.53;12.53;;;12.00;99.90;;;;;;5018500;28;20469;-74
2023/03/24 05:02:55;;;;;;;14.60;13.30;;;12.00;99.90;;;;;;5019105;28;20561;-73
2023/03/24 05:05:29;;;;;;;13.77;12.57;;;12.10;99.90;;;;;;5018198;28;20490;-73
2023/03/24 05:07:57;;;;;;;14.83;13.63;;;12.10;99.90;;;;;;5018221;28;20454;-73
2023/03/24 05:10:25;;;;;;;14.00;12.80;;;12.10;99.90;;;;;;5036043;28;20461;-73
2023/03/24 05:12:56;;;;;;;14.33;13.00;;;12.10;99.90;;;;;;5019037;28;20435;-73
2023/03/24 05:15:43;;;;;;;14.97;13.77;;;12.10;99.90;;;;;;5018248;28;20448;-72
2023/03/24 05:18:28;;;;;;;13.43;12.33;;;12.10;99.90;;;;;;5018126;28;20450;-72
2023/03/24 05:20:59;;;;;;;14.10;13.00;;;12.10;99.90;;;;;;5018487;28;20536;-72
2023/03/24 05:23:28;;;;;;;13.57;12.47;;;12.10;99.90;;;;;;5025199;28;20447;-73
2023/03/24 05:25:57;;;;;;;14.97;13.87;;;12.10;99.90;;;;;;5027890;28;20458;-74
2023/03/24 05:28:28;;;;;;;15.10;13.90;;;12.10;99.90;;;;;;5044479;28;20529;-73
2023/03/24 05:30:56;;;;;;;15.40;14.00;;;12.10;99.90;;;;;;5045011;28;20532;-74
2023/03/24 05:33:51;;;;;;;13.90;12.70;;;12.10;99.90;;;;;;5041592;28;20439;-73
2023/03/24 05:36:22;;;;;;;13.90;12.80;;;12.10;99.90;;;;;;5027479;28;20573;-74
2023/03/24 05:38:55;;;;;;;14.40;13.30;;;12.10;99.90;;;;;;5024375;28;20435;-73
2023/03/24 05:41:28;;;;;;;14.77;13.47;;;12.10;99.90;;;;;;5019408;28;20475;-73
2023/03/24 05:43:56;;;;;;;13.90;12.80;;;12.10;99.90;;;;;;5019867;28;20534;-73
2023/03/24 05:46:24;;;;;;;14.10;12.97;;;12.10;99.90;;;;;;5038125;28;20537;-73
2023/03/24 05:48:54;;;;;;;13.40;12.30;;;12.10;99.90;;;;;;5022492;28;20486;-73
2023/03/24 05:51:31;;;;;;;13.90;12.80;;;12.10;99.90;;;;;;5046929;28;20620;-73
2023/03/24 05:54:04;;;;;;;11.63;10.63;;;12.70;99.90;;;;;;5047272;28;20425;-73
2023/03/24 05:56:38;;;;;;;10.53;9.70;;;12.20;99.90;;;;;;5042794;28;20518;-72
2023/03/24 05:59:32;;;;;;;11.27;10.30;;;12.20;99.90;;;;;;5039021;28;20450;-73
2023/03/24 06:02:04;;;;;;;7.40;6.63;;;12.20;99.90;;;;;;5043613;28;20485;-73
2023/03/24 06:04:45;;;;;;;5.40;4.77;;;12.20;99.90;;;;;;5025910;28;20447;-73
2023/03/24 06:07:18;;;;;;;4.80;3.50;;;12.20;99.90;;;;;;5042958;28;20551;-73
2023/03/24 06:09:49;;;;;;;4.70;3.30;;;12.20;99.90;;;;;;5025620;28;20446;-73
2023/03/24 06:12:20;;;;;;;5.07;2.97;;;12.10;99.90;;;;;;5036387;28;20458;-73
2023/03/24 06:15:02;;;;;;;5.93;2.77;;;12.10;99.90;;;;;;5035209;28;20799;-73
2023/03/24 06:17:32;;;;;;;5.40;2.53;;;12.00;99.90;;;;;;5033392;28;20875;-74
2023/03/24 06:20:14;;;;;;;6.20;2.60;;;12.00;99.90;;;;;;4997873;28;20471;-74
2023/03/24 06:22:49;;;;;;;5.97;2.70;;;12.00;99.90;;;;;;4997334;28;20472;-74
2023/03/24 06:25:26;;;;;;;5.67;2.70;;;11.90;99.90;;;;;;4997444;28;20475;-73
2023/03/24 06:28:14;;;;;;;4.87;2.10;;;11.90;99.90;;;;;;5032618;28;20955;-74
2023/03/24 06:30:46;;;;;;;4.70;2.47;;;11.90;99.90;;;;;;5017268;28;20483;-73
2023/03/24 06:33:20;;;;;;;4.60;2.20;;;11.90;99.90;;;;;;5017689;28;20462;-73
2023/03/24 06:35:51;;;;;;;7.50;2.20;;;11.80;99.90;;;;;;5017163;28;20493;-73
2023/03/24 06:38:21;;;;;;;6.83;2.60;;;11.80;99.90;;;;;;5016995;28;20630;-72
2023/03/24 06:40:49;;;;;;;4.87;2.60;;;11.90;99.90;;;;;;5016341;28;20505;-73
2023/03/24 06:43:17;;;;;;;5.93;2.50;;;11.90;99.90;;;;;;5016394;28;20837;-74
2023/03/24 06:45:46;;;;;;;5.00;2.17;;;12.00;99.90;;;;;;5034333;28;20435;-73
2023/03/24 06:48:18;;;;;;;6.40;2.33;;;12.00;99.90;;;;;;5016292;28;20528;-73
2023/03/24 06:50:48;;;;;;;5.90;2.67;;;12.00;99.90;;;;;;5016221;28;20501;-73
2023/03/24 06:53:17;;;;;;;6.10;2.17;;;11.90;99.90;;;;;;5016828;28;20455;-73
2023/03/24 06:55:51;;;;;;;6.87;3.07;;;11.90;99.90;;;;;;5032869;28;21025;-74
2023/03/24 06:58:22;;;;;;;5.40;2.60;;;11.80;99.90;;;;;;5016203;28;20471;-73
2023/03/24 07:01:04;;;;;;;5.20;2.50;;;11.80;99.90;;;;;;5016064;28;20470;-74
2023/03/24 07:03:34;;;;;;;9.27;3.40;;;11.80;99.90;;;;;;5017013;28;20765;-74
2023/03/24 07:06:26;;;;;;;6.07;3.10;;;11.80;99.90;;;;;;5015948;28;20971;-74
2023/03/24 07:08:56;;;;;;;6.17;2.60;;;11.90;99.90;;;;;;5016053;28;20443;-74
2023/03/24 07:11:29;;;;;;;6.30;2.80;;;11.90;99.90;;;;;;5015925;28;20840;-73
2023/03/24 07:13:59;;;;;;;6.30;2.57;;;11.90;99.90;;;;;;5016246;28;20533;-74
2023/03/24 07:16:29;;;;;;;7.53;3.10;;;12.00;99.90;;;;;;5015887;28;20451;-73
2023/03/24 07:19:21;;;;;;;6.80;2.37;;;12.00;99.90;;;;;;5022717;28;20850;-74
2023/03/24 07:21:57;;;;;;;7.77;2.77;;;12.00;99.90;;;;;;5015807;28;20849;-74
2023/03/24 07:24:40;;;;;;;6.87;3.20;;;12.00;99.90;;;;;;5015036;28;20451;-74
2023/03/24 07:27:31;;;;;;;7.73;2.90;;;12.00;99.90;;;;;;5032719;28;20467;-74
2023/03/24 07:29:59;;;;;;;7.20;2.90;;;12.10;99.90;;;;;;5015576;28;20466;-75
2023/03/24 07:32:41;;;;;;;8.03;3.30;;;12.10;99.90;;;;;;5033384;28;20964;-74
2023/03/24 07:35:12;;;;;;;6.17;3.10;;;12.10;99.90;;;;;;5015696;28;20455;-74
2023/03/24 07:37:40;;;;;;;6.97;3.17;;;12.10;99.90;;;;;;5033576;28;20790;-74
2023/03/24 07:40:11;;;;;;;9.63;3.10;;;12.10;99.90;;;;;;5015548;28;20462;-74
2023/03/24 07:42:42;;;;;;;8.47;3.00;;;12.10;99.90;;;;;;5033557;28;20496;-74
2023/03/24 07:45:28;;;;;;;7.50;2.80;;;12.20;99.90;;;;;;5033501;28;20429;-73
2023/03/24 07:48:00;;;;;;;7.23;3.40;;;12.20;99.90;;;;;;5015672;28;20998;-74
2023/03/24 07:50:32;;;;;;;7.43;3.00;;;12.20;99.90;;;;;;5015433;28;20938;-73
2023/03/24 07:53:08;;;;;;;7.17;2.43;;;12.20;99.90;;;;;;5015591;28;20458;-73
2023/03/24 07:55:37;;;;;;;7.73;2.97;;;12.20;99.90;;;;;;5016296;28;20493;-73
2023/03/24 07:58:16;;;;;;;10.20;2.70;;;12.20;99.90;;;;;;5015298;28;20467;-74
2023/03/24 08:01:00;;;;;;;6.93;2.60;;;12.20;99.90;;;;;;5015320;28;20886;-74
2023/03/24 08:03:40;;;;;;;10.93;3.07;;;12.20;99.90;;;;;;5032467;28;20454;-73
2023/03/24 08:06:15;;;;;;;9.37;2.87;;;12.10;99.90;;;;;;5033882;28;20427;-74
2023/03/24 08:08:47;;;;;;;6.97;2.87;;;12.10;99.90;;;;;;5031713;28;20471;-74
2023/03/24 08:11:15;;;;;;;9.87;3.27;;;12.10;99.90;;;;;;5031740;28;21018;-74
2023/03/24 08:13:47;;;;;;;7.90;2.97;;;12.00;99.90;;;;;;5033488;28;20446;-74
2023/03/24 08:16:16;;;;;;;6.60;2.60;;;12.10;99.90;;;;;;5033311;28;20442;-75
2023/03/24 08:18:45;;;;;;;7.30;3.10;;;12.00;99.90;;;;;;5015895;28;20471;-74
2023/03/24 08:21:13;;;;;;;5.83;2.80;;;12.00;99.90;;;;;;5015212;28;21000;-73
2023/03/24 08:23:41;;;;;;;6.00;2.60;;;12.00;99.90;;;;;;5033057;28;20449;-73
2023/03/24 08:26:10;;;;;;;10.57;2.57;;;12.00;99.90;;;;;;5015165;28;20438;-74
2023/03/24 08:28:39;;;;;;;9.47;3.13;;;12.10;99.90;;;;;;5033174;28;20501;-76
2023/03/24 08:31:09;;;;;;;8.20;2.90;;;12.10;99.90;;;;;;5016269;28;20471;-75
2023/03/24 08:33:38;;;;;;;6.27;2.33;;;12.10;99.90;;;;;;5015765;28;20447;-74
2023/03/24 08:36:07;;;;;;;7.10;3.00;;;12.10;99.90;;;;;;5017607;28;20449;-74
2023/03/24 08:38:37;;;;;;;6.93;3.00;;;12.10;99.90;;;;;;5037079;28;20438;-74
2023/03/24 08:41:07;;;;;;;9.00;3.20;;;12.20;99.90;;;;;;5036628;28;20482;-73
2023/03/24 08:43:36;;;;;;;10.33;3.90;;;12.30;99.90;;;;;;5018673;28;20533;-73
2023/03/24 08:46:09;;;;;;;5.37;2.10;;;12.50;99.90;;;;;;5036326;28;20442;-73
2023/03/24 08:48:42;;;;;;;7.37;2.80;;;12.50;99.90;;;;;;5036836;28;20478;-73
2023/03/24 08:51:11;;;;;;;7.20;2.53;;;12.60;99.90;;;;;;5036502;28;21070;-72
2023/03/24 08:53:40;;;;;;;6.17;2.40;;;12.70;99.90;;;;;;5036465;28;21030;-73
2023/03/24 08:56:09;;;;;;;7.97;2.83;;;12.80;99.90;;;;;;5036125;28;20474;-73
2023/03/24 08:58:37;;;;;;;10.57;2.67;;;12.80;99.90;;;;;;5036619;28;20435;-73
2023/03/24 09:01:06;;;;;;;10.83;2.90;;;12.80;99.90;;;;;;5036010;28;20483;-73
2023/03/24 09:03:38;;;;;;;7.00;2.70;;;12.80;99.90;;;;;;5036002;28;20439;-73
2023/03/24 09:06:07;;;;;;;9.80;2.50;;;12.70;99.90;;;;;;5036016;28;20419;-73
2023/03/24 09:08:35;;;;;;;6.40;2.90;;;12.70;99.90;;;;;;5035842;28;20470;-73
2023/03/24 09:11:03;;;;;;;8.97;2.27;;;12.70;99.90;;;;;;5035874;28;20459;-73
2023/03/24 09:13:31;;;;;;;7.63;2.60;;;12.80;99.90;;;;;;5036042;28;20481;-73
2023/03/24 09:16:03;;;;;;;9.93;2.50;;;12.80;99.90;;;;;;5036114;28;20445;-74
2023/03/24 09:18:32;;;;;;;7.50;3.07;;;12.80;99.90;;;;;;5035006;28;20474;-74
2023/03/24 09:21:02;;;;;;;6.33;2.10;;;12.80;99.90;;;;;;5036912;28;20455;-74
2023/03/24 09:23:30;;;;;;;12.60;2.83;;;12.90;99.90;;;;;;5018731;28;20802;-75
2023/03/24 09:26:00;;;;;;;7.67;2.50;;;13.00;99.90;;;;;;5036452;28;20502;-75
2023/03/24 09:28:28;;;;;;;11.03;3.43;;;13.10;99.90;;;;;;5018269;28;20537;-75
2023/03/24 09:30:58;;;;;;;9.03;3.47;;;13.10;99.90;;;;;;5036478;28;20454;-75
2023/03/24 09:33:28;;;;;;;9.40;2.73;;;13.20;99.90;;;;;;5036331;28;20760;-74
2023/03/24 09:35:57;;;;;;;7.73;2.80;;;13.10;99.90;;;;;;5035363;28;20443;-75
2023/03/24 09:38:29;;;;;;;11.50;3.37;;;13.10;99.90;;;;;;5035567;28;20442;-75
2023/03/24 09:41:01;;;;;;;17.00;4.07;;;13.20;99.90;;;;;;5017675;28;20463;-74
2023/03/24 09:43:36;;;;;;;10.20;3.27;;;13.30;99.90;;;;;;5036111;28;20812;-72
2023/03/24 09:46:10;;;;;;;10.43;3.87;;;13.40;99.90;;;;;;5035370;28;20423;-72
2023/03/24 09:48:42;;;;;;;11.43;3.80;;;13.50;99.90;;;;;;5016937;28;20821;-72
2023/03/24 09:51:18;;;;;;;8.97;2.40;;;13.60;99.90;;;;;;5035579;28;20466;-72
2023/03/24 09:53:54;;;;;;;9.30;3.43;;;13.70;99.90;;;;;;5017724;28;20441;-72
2023/03/24 09:56:24;;;;;;;8.93;3.07;;;13.80;99.90;;;;;;5035932;28;20455;-72
2023/03/24 09:59:00;;;;;;;10.33;3.90;;;13.80;99.90;;;;;;5035163;28;20435;-72
2023/03/24 10:01:28;;;;;;;10.03;3.97;;;13.80;99.90;;;;;;5017395;28;20476;-72
2023/03/24 10:03:59;;;;;;;8.60;3.07;;;13.80;99.90;;;;;;5035164;28;20442;-74
2023/03/24 10:06:31;;;;;;;9.60;4.30;;;13.70;99.90;;;;;;5017201;28;20474;-72
2023/03/24 10:09:15;;;;;;;10.00;4.10;;;13.70;99.90;;;;;;5035101;28;20462;-72
2023/03/24 10:11:51;;;;;;;10.80;3.00;;;13.60;99.90;;;;;;5016972;28;20501;-72
2023/03/24 10:14:33;;;;;;;11.87;3.70;;;13.60;99.90;;;;;;5034909;28;20423;-72
2023/03/24 10:17:06;;;;;;;11.80;3.17;;;13.60;99.90;;;;;;5034757;28;20422;-72
2023/03/24 10:19:42;;;;;;;11.77;3.83;;;13.60;99.90;;;;;;5018020;28;20443;-72
2023/03/24 10:22:16;;;;;;;6.60;2.97;;;13.50;99.90;;;;;;5034616;28;20451;-72
2023/03/24 10:24:53;;;;;;;8.93;3.50;;;13.40;99.90;;;;;;5034498;28;20451;-73
2023/03/24 10:27:27;;;;;;;9.70;3.70;;;13.40;99.90;;;;;;5017098;28;20435;-74
2023/03/24 10:30:03;;;;;;;11.13;4.37;;;13.50;99.90;;;;;;5034612;28;20458;-74
2023/03/24 10:32:34;;;;;;;9.53;3.83;;;13.50;99.90;;;;;;5016968;28;20450;-74
2023/03/24 10:35:08;;;;;;;10.10;3.60;;;13.60;99.90;;;;;;5034542;28;20459;-71
2023/03/24 10:37:37;;;;;;;9.20;3.47;;;13.60;99.90;;;;;;5034609;28;20461;-71
2023/03/24 10:40:16;;;;;;;7.30;3.23;;;13.60;99.90;;;;;;5034145;28;20529;-71
2023/03/24 10:42:48;;;;;;;12.10;4.70;;;13.60;99.90;;;;;;5034371;28;20470;-72
2023/03/24 10:45:36;;;;;;;8.80;4.30;;;13.60;99.90;;;;;;5034224;28;20443;-72
2023/03/24 10:48:06;;;;;;;9.60;3.30;;;13.60;99.90;;;;;;5016295;28;20793;-71
2023/03/24 10:50:37;;;;;;;8.93;3.20;;;13.70;99.90;;;;;;5034281;28;20816;-72
2023/03/24 10:53:09;;;;;;;10.80;4.00;;;13.80;99.90;;;;;;5034385;28;20844;-71
2023/03/24 10:55:42;;;;;;;11.00;3.97;;;13.80;99.90;;;;;;5034246;28;20454;-71
2023/03/24 10:58:19;;;;;;;6.50;3.70;;;13.90;99.90;;;;;;5016200;28;20451;-73
2023/03/24 11:00:48;;;;;;;8.60;4.00;;;14.00;99.90;;;;;;5016130;28;20561;-73
2023/03/24 11:03:22;;;;;;;7.90;4.20;;;14.10;99.90;;;;;;5033957;28;20435;-73
2023/03/24 11:05:58;;;;;;;12.70;4.13;;;14.10;99.90;;;;;;5034032;28;20431;-71
2023/03/24 11:08:32;;;;;;;11.30;3.80;;;14.20;99.90;;;;;;5033884;28;20884;-71
2023/03/24 11:11:01;;;;;;;9.37;4.80;;;14.10;99.90;;;;;;5015961;28;20983;-71
2023/03/24 11:13:32;;;;;;;12.67;3.80;;;14.20;99.90;;;;;;5033693;28;20441;-71
2023/03/24 11:16:12;;;;;;;12.70;3.80;;;14.20;99.90;;;;;;5033913;28;20928;-71
2023/03/24 11:18:56;;;;;;;11.77;4.00;;;14.30;99.90;;;;;;5015937;28;20808;-71
2023/03/24 11:21:25;;;;;;;7.63;3.53;;;14.30;99.90;;;;;;5015746;28;20498;-71
2023/03/24 11:23:53;;;;;;;7.97;2.70;;;14.30;99.90;;;;;;5033599;28;20435;-72
2023/03/24 11:26:31;;;;;;;7.50;2.90;;;14.30;99.90;;;;;;5015803;28;20853;-72
2023/03/24 11:29:02;;;;;;;9.77;3.17;;;14.40;99.90;;;;;;5033716;28;20455;-71
2023/03/24 11:31:32;;;;;;;8.57;3.50;;;14.40;99.90;;;;;;5033528;28;20481;-71
2023/03/24 11:34:02;;;;;;;9.43;2.80;;;14.50;99.90;;;;;;5033264;28;20447;-72
2023/03/24 11:36:56;;;;;;;7.90;3.20;;;14.50;99.90;;;;;;5033418;28;20923;-71
2023/03/24 11:39:25;;;;;;;10.40;3.40;;;14.60;99.90;;;;;;4997818;28;20939;-71
2023/03/24 11:42:04;;;;;;;8.00;3.53;;;14.70;99.90;;;;;;5033231;28;20455;-71
2023/03/24 11:44:45;;;;;;;8.27;3.20;;;14.70;99.90;;;;;;5033623;28;20793;-71
2023/03/24 11:47:21;;;;;;;11.93;3.40;;;14.70;99.90;;;;;;5033579;28;20423;-71
2023/03/24 11:49:54;;;;;;;11.20;3.20;;;14.70;99.90;;;;;;5033555;28;20455;-71
2023/03/24 11:52:26;;;;;;;8.40;3.63;;;14.80;99.90;;;;;;5033482;28;20415;-71
2023/03/24 11:54:55;;;;;;;9.23;3.33;;;14.80;99.90;;;;;;5015465;28;20855;-71
2023/03/24 11:57:45;;;;;;;8.17;3.80;;;14.80;99.90;;;;;;5033130;28;20431;-71
2023/03/24 12:00:21;;;;;;;11.20;3.33;;;14.80;99.90;;;;;;5033305;28;20451;-71
2023/03/24 12:03:17;;;;;;;9.50;3.40;;;14.80;99.90;;;;;;5033787;28;20423;-71
2023/03/24 12:05:50;;;;;;;7.90;2.97;;;14.80;99.90;;;;;;5015393;28;20451;-71
2023/03/24 12:08:35;;;;;;;5.70;2.40;;;14.80;99.90;;;;;;5033387;28;20430;-71
2023/03/24 12:11:16;;;;;;;6.70;2.40;;;14.80;99.90;;;;;;5035202;28;20895;-71
2023/03/24 12:13:50;;;;;;;8.00;2.60;;;14.80;99.90;;;;;;5037063;28;20923;-71
2023/03/24 12:16:31;;;;;;;6.10;2.60;;;14.80;99.90;;;;;;5036964;28;20442;-71
2023/03/24 12:19:18;;;;;;;6.07;2.40;;;14.90;99.90;;;;;;5019207;28;20530;-70
2023/03/24 12:21:57;;;;;;;7.57;2.17;;;14.90;99.90;;;;;;5036847;28;20971;-71
2023/03/24 12:24:43;;;;;;;6.80;2.40;;;15.00;99.90;;;;;;5019152;28;20542;-71
2023/03/24 12:27:24;;;;;;;9.50;3.50;;;15.00;99.90;;;;;;5037112;28;20415;-71
2023/03/24 12:30:01;;;;;;;10.43;2.20;;;15.00;99.90;;;;;;5037138;28;20804;-71
2023/03/24 12:32:45;;;;;;;9.67;2.93;;;15.10;99.90;;;;;;5036790;28;20429;-71
2023/03/24 12:35:37;;;;;;;8.17;2.63;;;15.10;99.90;;;;;;5036656;28;20524;-71
2023/03/24 12:38:29;;;;;;;7.73;2.57;;;15.20;99.90;;;;;;5018703;28;20955;-71
2023/03/24 12:41:29;;;;;;;9.60;2.27;;;15.20;99.90;;;;;;5036440;28;20455;-71
2023/03/24 12:44:15;;;;;;;8.23;2.10;;;15.30;99.90;;;;;;5014003;28;20946;-71
2023/03/24 12:46:52;;;;;;;6.83;2.40;;;15.30;99.90;;;;;;5040490;28;20415;-71
2023/03/24 12:49:44;;;;;;;6.43;2.50;;;15.30;99.90;;;;;;5037218;28;20945;-72
2023/03/24 12:52:40;;;;;;;6.23;3.13;;;15.40;99.90;;;;;;5037361;28;20422;-71
2023/03/24 12:55:13;;;;;;;6.17;2.10;;;15.40;99.90;;;;;;5037219;28;20431;-71
2023/03/24 12:57:47;;;;;;;7.23;2.50;;;15.40;99.90;;;;;;5018516;28;20439;-71
2023/03/24 13:00:22;;;;;;;7.13;2.47;;;15.40;99.90;;;;;;5018518;28;20459;-71
2023/03/24 13:02:57;;;;;;;8.23;3.23;;;15.50;99.90;;;;;;5018488;28;20439;-74
2023/03/24 13:05:31;;;;;;;7.90;2.70;;;15.50;99.90;;;;;;5036069;28;20958;-72
2023/03/24 13:08:03;;;;;;;7.00;2.80;;;15.60;99.90;;;;;;5036202;28;20420;-72
2023/03/24 13:10:39;;;;;;;6.20;2.83;;;15.60;99.90;;;;;;5036414;28;20535;-73
2023/03/24 13:13:13;;;;;;;8.67;2.97;;;15.60;99.90;;;;;;5036316;28;20414;-72
2023/03/24 13:15:47;;;;;;;6.13;2.73;;;15.70;99.90;;;;;;5018168;28;20550;-72
2023/03/24 13:18:27;;;;;;;5.53;2.47;;;15.70;99.90;;;;;;5035839;28;20455;-72
2023/03/24 13:21:00;;;;;;;7.53;2.90;;;15.80;99.90;;;;;;5035605;28;20451;-72